Argyle, New York
Current Conditions -  °F | °C
As of 12:53 PM on Tuesday 21 Oct 2014 (Local Time) from KGFL Reporting Station
Light Rain Light Rain  
Wind Chill: 10°   Ceiling: 2500
Heat Index: 10°   Visibility: 5mi
Dew Point:   Wind: 5mph
Humidity: 89%   Direction: 60°ENE
Pressure: 29.95"   Gusts: NA
Location:  43.24°N, 73.49°W
Report Text: KGFL 211653Z AUTO 06004KT 5SM -RA BR FEW008 BKN025 OVC055 10/08 A2995 RMK AO2 RAB1559 SLP145 P0006 T01000083
Loading
Personal Weather Stations






























Interactive Weather Map
Tropical Storm Tracking
New forecast layout! Learn more

10-Day Weather Forecast

Advertisements
Track Severe Weather on mobile